Terminal Aerodrome Forecast
Issued by NWS Chicago, IL

Home | Current Version | Previous Version | Graphics & Text | Print | Product List | Glossary On
Versions: 1 2 3 4 5 6 7 8 9 10 11 12 13 14 15 16 17 18 19 20 21 22 23 24 25
913
FTUS43 KLOT 070533
TAFRFD
TAF
KRFD 070533Z 0706/0806 26010G16KT P6SM FEW030
     FM071400 25010G16KT P6SM BKN018 OVC100
     FM072300 28013G20KT P6SM BKN015=

USA.gov is the U.S. government's official web portal to all federal, state and local government web resources and services.